Flight Track Log - Related Links

Times and Time Zones

All times are in EDT time to prevent confusion due to time zone crossing. See the EJA122 flight status page for this flight to view local times or setup timezone preferences in your user account.


Time Position Orientation Groundspeed Altitude Reporting Facility
EDT Latitude Longitude Course Direction KTS MPH feet Rate Location/Type
Tue 10:47:44 AM 41.3283 -70.2314 304° West 369 425 7,300  Level Boston Center
Tue 10:48:44 AM 41.3425 -70.3222 282° West 297 342 9,800 2,250 Climbing Boston Center
Tue 10:49:44 AM 41.3547 -70.4186 280° West 279 321 11,800 2,050 Climbing Boston Center
Tue 10:50:44 AM 41.3797 -70.5283 287° West 296 341 13,900 2,050 Climbing Boston Center
Tue 10:51:00 AM 41.4360 -70.7317 298° West  Level FlightAware Approximate
Tue 10:51:44 AM 41.4086 -70.6439 288° West 301 346 15,900  Level Boston Center
Tue 10:52:00 AM 41.4845 -70.8356 304° West  Level FlightAware Approximate
Tue 10:52:44 AM 41.4497 -70.7422 299° West 316 364 16,000  Level Boston Center
Tue 10:53:44 AM 41.5017 -70.8711 298° West 349 402 16,000  Level Boston Center
Tue 10:54:44 AM 41.5447 -70.9756 299° West 362 417 16,000  Level Boston Center
Tue 10:55:44 AM 41.5942 -71.1050 297° West 362 417 16,000  Level Boston Center
Tue 10:56:44 AM 41.6144 -71.2156 284° West 351 404 16,000  Level Boston Center
Tue 10:57:56 AM 41.6283 -71.3681 277° West 344 396 16,000  Level Boston Center
Tue 10:58:56 AM 41.6378 -71.5039 275° West 339 390 16,000  Level Boston Center
Tue 10:59:56 AM 41.6472 -71.6289 276° West 339 390 16,000  Level Boston Center
Tue 11:00:56 AM 41.6792 -71.7536 289° West 352 405 16,000  Level Boston Center
Tue 11:01:56 AM 41.7133 -71.8700 292° West 357 411 16,000  Level Boston Center
Tue 11:02:56 AM 41.7492 -71.9950 291° West 357 411 16,000  Level Boston Center
Tue 11:03:56 AM 41.7831 -72.1172 290° West 347 399 16,000  Level Boston Center
Tue 11:05:08 AM 41.8125 -72.2283 290° West 353 406 16,000  Level Boston Center
Tue 11:06:08 AM 41.8522 -72.3703 291° West 348 400 16,000  Level Boston Center
Tue 11:07:08 AM 41.8897 -72.5042 291° West 348 400 16,000  Level Boston Center
Tue 11:08:08 AM 41.9208 -72.6158 291° West 355 409 16,000  Level Boston Center
Tue 11:09:08 AM 41.9247 -72.7386 272° West 355 409 16,000 -600 Level Boston Center
Tue 11:10:08 AM 41.8767 -72.8500 240° Southwest 324 373 14,800 -1,350 Descending Boston Center
Tue 11:11:08 AM 41.8281 -72.9639 240° Southwest 337 388 13,300 -1,400 Descending Boston Center
Tue 11:12:08 AM 41.7775 -73.0858 241° Southwest 347 399 12,000 -650 Descending Boston Center
Tue 11:13:08 AM 41.7289 -73.2022 241° Southwest 359 413 12,000  Level Boston Center
Tue 11:14:08 AM 41.6800 -73.3156 240° Southwest 359 413 12,000 -514 Level Boston Center
Tue 11:16:38 AM 41.5667 -73.5667 239° Southwest 268 308 10,200 -886 Descending New York TRACON
Tue 11:17:38 AM 41.5333 -73.6500 242° Southwest 269 310 8,900 -1,190 Descending New York TRACON
Tue 11:18:44 AM 41.5000 -73.7500 246° West 266 306 7,700 -1,140 Descending New York TRACON
Tue 11:19:39 AM 41.4667 -73.8167 236° Southwest 257 296 6,600 -887 Descending New York TRACON
Tue 11:20:39 AM 41.4000 -73.8500 201° Southwest 258 297 6,000 -700 Descending New York TRACON
Tue 11:21:39 AM 41.3333 -73.8333 169° South 192 221 5,200 -1,150 Descending New York TRACON
Tue 11:22:39 AM 41.3000 -73.8667 217° Southwest 180 207 3,700 -1,100 Descending New York TRACON
Tue 11:23:39 AM 41.2667 -73.8667 180° South 193 222 3,000 -800 Descending New York TRACON
Tue 11:24:39 AM 41.2333 -73.8167 132° Southeast 188 216 2,100 -526 Descending New York TRACON
Tue 11:25:33 AM 41.1833 -73.8000 166° South 181 208 2,000 -111 Descending New York TRACON

Login

Don't have an account? Register now (free) for customized features, flight alerts, and more!